createdAt,value
2023-02-16T00:03:27.261Z,98661.28
2023-02-16T00:08:28.703Z,98653.59
2023-02-16T00:13:47.436Z,98653.34
2023-02-16T00:18:49.097Z,98654.16
2023-02-16T00:23:51.112Z,98660.19
2023-02-16T00:28:55.023Z,98650.94
2023-02-16T00:33:56.465Z,98657.88
2023-02-16T00:38:57.892Z,98656.91
2023-02-16T00:43:59.426Z,98650.06
2023-02-16T00:49:00.858Z,98643.34
2023-02-16T00:54:02.347Z,98655.25
2023-02-16T00:59:07.409Z,98654.41
2023-02-16T01:04:20.120Z,98655.50
2023-02-16T01:09:40.091Z,98652.16
2023-02-16T01:14:41.578Z,98647.69
2023-02-16T01:19:43.108Z,98644.22
2023-02-16T01:24:44.604Z,98640.84
2023-02-16T01:29:46.105Z,98636.53
2023-02-16T01:34:47.587Z,98627.41
2023-02-16T01:39:49.436Z,98633.03
2023-02-16T01:44:59.702Z,98627.16
2023-02-16T01:50:14.911Z,98627.63
2023-02-16T01:55:28.417Z,98628.38
2023-02-16T02:00:52.064Z,98619.25
2023-02-16T02:05:53.500Z,98625.25
2023-02-16T02:11:20.250Z,98611.78
2023-02-16T02:16:28.913Z,98616.84
2023-02-16T02:22:28.195Z,98618.88
2023-02-16T02:27:37.614Z,98615.59
2023-02-16T02:32:45.699Z,98620.66
2023-02-16T02:38:06.316Z,98623.19
2023-02-16T02:43:10.874Z,98619.47
2023-02-16T02:48:13.882Z,98618.25
2023-02-16T02:53:16.306Z,98605.03
2023-02-16T02:58:41.575Z,98608.16
2023-02-16T03:03:47.788Z,98601.16
2023-02-16T03:08:55.792Z,98602.63
2023-02-16T03:14:05.773Z,98604.53
2023-02-16T03:19:28.216Z,98607.09
2023-02-16T03:24:51.777Z,98602.16
2023-02-16T03:29:55.810Z,98614.03
2023-02-16T03:34:57.452Z,98613.69
2023-02-16T03:40:17.831Z,98616.78
2023-02-16T03:45:23.112Z,98615.09
2023-02-16T03:50:26.982Z,98619.91
2023-02-16T03:55:28.399Z,98612.41
2023-02-16T04:00:29.922Z,98603.28
2023-02-16T04:05:32.490Z,98598.69
2023-02-16T04:10:34.546Z,98607.59
2023-02-16T04:15:36.010Z,98608.94
2023-02-16T04:20:37.794Z,98609.19
2023-02-16T04:25:39.207Z,98609.69
2023-02-16T04:30:40.705Z,98604.78
2023-02-16T04:35:42.175Z,98601.06
2023-02-16T04:40:43.610Z,98608.50
2023-02-16T04:45:45.025Z,98607.94
2023-02-16T04:50:46.495Z,98595.09
2023-02-16T04:55:49.512Z,98590.91
2023-02-16T05:00:50.947Z,98608.66
2023-02-16T05:05:52.355Z,98600.88
2023-02-16T05:11:12.241Z,98608.31
2023-02-16T05:16:13.669Z,98601.97
2023-02-16T05:21:33.205Z,98601.38
2023-02-16T05:26:36.776Z,98606.41
2023-02-16T05:31:38.380Z,98604.09
2023-02-16T05:36:39.932Z,98612.53
2023-02-16T05:41:41.350Z,98605.66
2023-02-16T05:46:43.182Z,98614.91
2023-02-16T05:51:44.624Z,98614.66
2023-02-16T05:56:50.743Z,98606.00
2023-02-16T06:01:52.735Z,98616.81
2023-02-16T06:06:54.594Z,98628.63
2023-02-16T06:11:55.990Z,98622.59
2023-02-16T06:16:58.663Z,98630.38
2023-02-16T06:22:00.104Z,98627.16
2023-02-16T06:27:01.527Z,98635.31
2023-02-16T06:32:03.458Z,98642.56
2023-02-16T06:37:04.993Z,98640.84
2023-02-16T06:42:06.394Z,98633.91
2023-02-16T06:47:07.790Z,98633.06
2023-02-16T06:52:09.396Z,98628.63
2023-02-16T06:57:11.006Z,98633.91
2023-02-16T07:02:12.603Z,98627.88
2023-02-16T07:07:14.160Z,98616.63
2023-02-16T07:12:15.611Z,98617.56
2023-02-16T07:17:17.378Z,98608.81
2023-02-16T07:22:18.946Z,98604.84
2023-02-16T07:27:20.343Z,98608.91
2023-02-16T07:32:21.933Z,98623.81
2023-02-16T07:37:23.506Z,98627.50
2023-02-16T07:42:24.977Z,98622.09
2023-02-16T07:47:26.890Z,98634.06
2023-02-16T07:52:30.985Z,98624.88
2023-02-16T07:57:32.517Z,98622.78
2023-02-16T08:02:42.544Z,98609.97
2023-02-16T08:07:46.597Z,98620.25
2023-02-16T08:12:49.701Z,98620.78
2023-02-16T08:17:51.254Z,98629.81
2023-02-16T08:22:54.440Z,98627.31
2023-02-16T08:27:55.878Z,98621.84
2023-02-16T08:33:00.938Z,98618.31
2023-02-16T08:38:02.402Z,98633.00
2023-02-16T08:43:03.904Z,98624.56
2023-02-16T08:48:05.452Z,98619.41
2023-02-16T08:53:06.966Z,98622.50
2023-02-16T08:58:08.384Z,98619.53
2023-02-16T09:03:09.778Z,98618.25
2023-02-16T09:08:11.359Z,98617.91
2023-02-16T09:13:16.262Z,98612.50
2023-02-16T09:18:18.131Z,98621.03
2023-02-16T09:23:20.452Z,98620.53
2023-02-16T09:28:21.878Z,98617.22
2023-02-16T09:33:23.331Z,98625.84
2023-02-16T09:38:25.437Z,98618.94
2023-02-16T09:43:47.730Z,98615.59
2023-02-16T09:48:50.906Z,98622.78
2023-02-16T09:54:02.035Z,98630.09
2023-02-16T09:59:18.800Z,98620.41
2023-02-16T10:04:51.374Z,98623.47
2023-02-16T10:09:55.152Z,98626.53
2023-02-16T10:15:02.773Z,98633.63
2023-02-16T10:20:18.467Z,98632.13
2023-02-16T10:25:37.215Z,98619.81
2023-02-16T10:30:42.937Z,98618.09
2023-02-16T10:35:48.060Z,98608.88
2023-02-16T10:40:49.404Z,98613.16
2023-02-16T10:45:58.997Z,98610.69
2023-02-16T10:51:10.854Z,98601.41
2023-02-16T10:56:31.799Z,98605.44
2023-02-16T11:01:38.043Z,98597.13
2023-02-16T11:06:39.508Z,98600.97
2023-02-16T11:11:42.810Z,98598.69
2023-02-16T11:16:44.736Z,98598.06
2023-02-16T11:21:52.165Z,98587.91
2023-02-16T11:27:21.849Z,98597.13
2023-02-16T11:32:24.135Z,98586.97
2023-02-16T11:37:29.546Z,98576.38
2023-02-16T11:42:40.224Z,98569.41
2023-02-16T11:47:43.017Z,98568.78
2023-02-16T11:52:46.965Z,98558.81
2023-02-16T11:57:49.002Z,98557.50
2023-02-16T12:03:23.060Z,98565.19
2023-02-16T12:08:36.898Z,98554.56
2023-02-16T12:13:59.378Z,98554.06
2023-02-16T12:19:03.786Z,98548.25
2023-02-16T12:24:14.295Z,98533.56
2023-02-16T12:29:34.643Z,98533.09
2023-02-16T12:35:09.399Z,98534.59
2023-02-16T12:40:31.991Z,98523.41
2023-02-16T12:45:38.677Z,98520.41
2023-02-16T12:50:42.034Z,98520.25
2023-02-16T12:55:51.027Z,98512.06
2023-02-16T13:00:58.507Z,98513.56
2023-02-16T13:06:25.305Z,98505.56
2023-02-16T13:11:56.842Z,98500.19
2023-02-16T13:17:02.918Z,98500.53
2023-02-16T13:22:13.651Z,98496.19
2023-02-16T13:27:24.716Z,98499.13
2023-02-16T13:32:32.227Z,98498.47
2023-02-16T13:37:45.884Z,98485.03
2023-02-16T13:42:47.305Z,98498.94
2023-02-16T13:47:51.984Z,98493.19
2023-02-16T13:52:56.686Z,98486.66
2023-02-16T13:58:29.872Z,98502.78
2023-02-16T14:03:38.060Z,98488.38
2023-02-16T14:08:39.723Z,98508.50
2023-02-16T14:13:41.261Z,98512.84
2023-02-16T14:18:55.288Z,98504.88
2023-02-16T14:23:59.052Z,98495.88
2023-02-16T14:29:17.501Z,98496.38
2023-02-16T14:34:31.313Z,98507.41
2023-02-16T14:39:34.967Z,98510.56
2023-02-16T14:44:53.605Z,98513.91
2023-02-16T14:50:15.837Z,98511.06
2023-02-16T14:55:43.390Z,98510.06
2023-02-16T15:01:08.544Z,98514.06
2023-02-16T15:06:18.860Z,98506.53
2023-02-16T15:11:27.791Z,98512.53
2023-02-16T15:16:31.768Z,98513.81
2023-02-16T15:21:33.349Z,98515.44
2023-02-16T15:26:35.869Z,98505.00
2023-02-16T15:31:38.261Z,98495.59
2023-02-16T15:36:42.544Z,98493.00
2023-02-16T15:41:48.286Z,98498.41
2023-02-16T15:46:49.737Z,98494.78
2023-02-16T15:51:51.777Z,98489.53
2023-02-16T15:56:59.705Z,98496.09
2023-02-16T16:02:10.581Z,98493.66
2023-02-16T16:07:16.121Z,98484.56
2023-02-16T16:12:19.426Z,98475.44
2023-02-16T16:17:27.906Z,98487.28
2023-02-16T16:22:59.705Z,98488.19
2023-02-16T16:28:06.350Z,98487.88
2023-02-16T16:33:13.882Z,98483.88
2023-02-16T16:38:25.230Z,98488.69
2023-02-16T16:43:34.876Z,98484.81
2023-02-16T16:48:37.148Z,98500.03
2023-02-16T16:54:04.142Z,98491.78
2023-02-16T16:59:06.574Z,98484.50
2023-02-16T17:04:08.151Z,98483.97
2023-02-16T17:09:09.811Z,98484.28
2023-02-16T17:14:17.238Z,98481.31
2023-02-16T17:19:21.496Z,98485.88
2023-02-16T17:24:23.154Z,98491.13
2023-02-16T17:29:24.711Z,98484.94
2023-02-16T17:34:29.249Z,98474.72
2023-02-16T17:39:30.990Z,98471.78
2023-02-16T17:44:32.395Z,98464.94
2023-02-16T17:49:33.860Z,98468.97
2023-02-16T17:54:35.430Z,98477.72
2023-02-16T17:59:36.980Z,98464.84
2023-02-16T18:04:41.050Z,98461.84
2023-02-16T18:09:42.705Z,98460.84
2023-02-16T18:14:44.157Z,98463.91
2023-02-16T18:19:45.611Z,98470.56
2023-02-16T18:24:47.053Z,98473.94
2023-02-16T18:29:48.613Z,98469.28
2023-02-16T18:34:50.156Z,98471.94
2023-02-16T18:39:51.606Z,98470.28
2023-02-16T18:44:53.073Z,98469.59
2023-02-16T18:49:56.094Z,98468.75
2023-02-16T18:54:57.533Z,98463.00
2023-02-16T18:59:59.342Z,98464.84
2023-02-16T19:05:01.182Z,98479.63
2023-02-16T19:10:04.840Z,98495.28
2023-02-16T19:15:09.502Z,98494.88
2023-02-16T19:20:14.416Z,98486.59
2023-02-16T19:25:16.185Z,98476.50
2023-02-16T19:30:20.563Z,98477.84
2023-02-16T19:35:22.641Z,98470.56
2023-02-16T19:40:24.073Z,98473.06
2023-02-16T19:45:25.554Z,98468.59
2023-02-16T19:50:27.010Z,98469.56
2023-02-16T19:55:28.444Z,98457.97
2023-02-16T20:00:30.018Z,98473.06
2023-02-16T20:05:32.271Z,98465.25
2023-02-16T20:10:34.318Z,98475.06
2023-02-16T20:15:36.320Z,98470.56
2023-02-16T20:20:37.731Z,98473.94
2023-02-16T20:25:39.984Z,98467.44
2023-02-16T20:30:42.282Z,98457.66
2023-02-16T20:35:43.852Z,98461.28
2023-02-16T20:40:45.478Z,98463.00
2023-02-16T20:45:47.592Z,98473.03
2023-02-16T20:51:08.587Z,98472.41
2023-02-16T20:56:15.785Z,98454.31
2023-02-16T21:01:27.946Z,98466.16
2023-02-16T21:06:29.639Z,98458.88
2023-02-16T21:11:31.748Z,98452.72
2023-02-16T21:16:33.547Z,98447.88
2023-02-16T21:21:35.062Z,98444.13
2023-02-16T21:26:36.562Z,98433.50
2023-02-16T21:31:38.307Z,98424.25
2023-02-16T21:36:39.912Z,98418.63
2023-02-16T21:41:41.424Z,98409.97
2023-02-16T21:46:45.192Z,98408.72
2023-02-16T21:51:47.989Z,98405.56
2023-02-16T21:56:50.216Z,98407.41
2023-02-16T22:01:51.860Z,98408.09
2023-02-16T22:06:54.600Z,98409.44
2023-02-16T22:11:56.201Z,98396.66
2023-02-16T22:16:57.607Z,98390.38
2023-02-16T22:21:59.112Z,98386.53
2023-02-16T22:27:00.566Z,98378.56
2023-02-16T22:32:02.056Z,98390.72
2023-02-16T22:37:03.522Z,98389.56
2023-02-16T22:42:04.965Z,98389.44
2023-02-16T22:47:06.406Z,98384.94
2023-02-16T22:52:08.523Z,98382.09
2023-02-16T22:57:10.133Z,98377.63
2023-02-16T23:02:11.606Z,98354.84
2023-02-16T23:07:13.120Z,98355.28
2023-02-16T23:12:16.264Z,98335.44
2023-02-16T23:17:17.734Z,98342.13
2023-02-16T23:22:19.133Z,98343.59
2023-02-16T23:27:20.528Z,98333.66
2023-02-16T23:32:22.369Z,98339.34
2023-02-16T23:37:23.777Z,98333.72
2023-02-16T23:42:25.491Z,98335.50
2023-02-16T23:47:27.010Z,98318.06
2023-02-16T23:52:28.410Z,98322.22
2023-02-16T23:57:29.861Z,98298.13
